Time;durP1;ratioP1;P1;durP2;ratioP2;P2;SDS_P1;SDS_P2;PMS_P1;PMS_P2;Temp;Humidity;BMP_temperature;BMP_pressure;BME280_temperature;BME280_humidity;BME280_pressure;Samples;Min_cycle;Max_cycle;Signal;HPM_P1;HPM_P2
2023/06/25 00:01:14;;;;;;;7.30;6.57;;;;;;;;;;4972975;28;20459;-75
2023/06/25 00:03:41;;;;;;;7.13;6.28;;;;;;;;;;4986252;28;20901;-75
2023/06/25 00:06:08;;;;;;;5.90;5.40;;;;;;;;;;4984714;28;20445;-76
2023/06/25 00:08:35;;;;;;;6.53;5.93;;;;;;;;;;5005144;23;20539;-70
2023/06/25 00:11:03;;;;;;;6.13;5.63;;;;;;;;;;5004412;28;20424;-69
2023/06/25 00:13:30;;;;;;;7.00;6.30;;;;;;;;;;5004895;28;20421;-69
2023/06/25 00:15:58;;;;;;;7.37;6.40;;;;;;;;;;4999739;28;20498;-68
2023/06/25 00:18:26;;;;;;;6.82;6.20;;;;;;;;;;4998537;28;20419;-68
2023/06/25 00:20:54;;;;;;;7.20;6.50;;;;;;;;;;4991503;28;20484;-69
2023/06/25 00:23:21;;;;;;;7.50;6.80;;;;;;;;;;4995124;28;20458;-68
2023/06/25 00:25:48;;;;;;;7.45;6.75;;;;;;;;;;4993699;28;20435;-68
2023/06/25 00:28:15;;;;;;;7.60;6.80;;;;;;;;;;4988841;28;20431;-68
2023/06/25 00:30:42;;;;;;;8.32;7.53;;;;;;;;;;4996997;28;20427;-68
2023/06/25 00:33:10;;;;;;;7.95;7.15;;;;;;;;;;5014591;28;20444;-68
2023/06/25 00:35:44;;;;;;;7.03;6.32;;;;;;;;;;5002676;28;20438;-68
2023/06/25 00:38:11;;;;;;;7.20;6.50;;;;;;;;;;5011573;28;20429;-68
2023/06/25 00:40:38;;;;;;;7.10;6.40;;;;;;;;;;5007196;28;20447;-67
2023/06/25 00:43:05;;;;;;;7.60;6.90;;;;;;;;;;5016030;28;20421;-68
2023/06/25 00:45:33;;;;;;;7.22;6.53;;;;;;;;;;5007706;28;20420;-69
2023/06/25 00:48:00;;;;;;;7.30;6.53;;;;;;;;;;4996528;28;20491;-68
2023/06/25 00:50:29;;;;;;;7.15;6.45;;;;;;;;;;4997719;28;20945;-68
2023/06/25 00:52:57;;;;;;;7.53;6.82;;;;;;;;;;5020741;28;20911;-68
2023/06/25 00:55:25;;;;;;;7.38;6.68;;;;;;;;;;5001373;28;20823;-68
2023/06/25 00:57:55;;;;;;;7.80;7.00;;;;;;;;;;4990156;28;20434;-68
2023/06/25 01:00:25;;;;;;;7.50;6.70;;;;;;;;;;4998199;28;20962;-68
2023/06/25 01:02:53;;;;;;;7.38;6.68;;;;;;;;;;4990610;28;20423;-68
2023/06/25 01:05:21;;;;;;;7.77;7.07;;;;;;;;;;5005736;28;20480;-68
2023/06/25 01:07:50;;;;;;;7.30;6.70;;;;;;;;;;5006812;28;20427;-68
2023/06/25 01:10:19;;;;;;;7.50;6.80;;;;;;;;;;5008197;28;20794;-68
2023/06/25 01:12:46;;;;;;;7.50;6.60;;;;;;;;;;5004094;28;20435;-68
2023/06/25 01:15:13;;;;;;;7.80;7.00;;;;;;;;;;5019183;28;20431;-68
2023/06/25 01:17:40;;;;;;;6.90;6.20;;;;;;;;;;4994710;28;20821;-68
2023/06/25 01:20:11;;;;;;;6.55;6.05;;;;;;;;;;5007649;28;20458;-68
2023/06/25 01:22:40;;;;;;;6.90;6.13;;;;;;;;;;4993951;28;20457;-68
2023/06/25 01:25:08;;;;;;;6.97;6.38;;;;;;;;;;4994269;28;20863;-68
2023/06/25 01:27:35;;;;;;;6.68;5.95;;;;;;;;;;5000897;28;20431;-68
2023/06/25 01:30:03;;;;;;;6.50;5.90;;;;;;;;;;4997250;28;21092;-68
2023/06/25 01:32:30;;;;;;;6.72;6.03;;;;;;;;;;4992920;28;20441;-68
2023/06/25 01:34:57;;;;;;;6.53;5.93;;;;;;;;;;5014037;28;20421;-68
2023/06/25 01:37:24;;;;;;;6.20;5.70;;;;;;;;;;5000087;28;20432;-67
2023/06/25 01:39:55;;;;;;;7.10;6.40;;;;;;;;;;5014448;28;20434;-67
2023/06/25 01:42:22;;;;;;;7.03;6.32;;;;;;;;;;5014435;28;20422;-67
2023/06/25 01:44:49;;;;;;;7.00;6.30;;;;;;;;;;5000553;28;20421;-67
2023/06/25 01:47:16;;;;;;;7.65;6.80;;;;;;;;;;5005664;28;20417;-65
2023/06/25 01:49:43;;;;;;;7.03;6.20;;;;;;;;;;5007668;28;20432;-68
2023/06/25 01:52:11;;;;;;;7.30;6.60;;;;;;;;;;5005489;28;20465;-67
2023/06/25 01:54:38;;;;;;;6.95;6.35;;;;;;;;;;5009370;28;20431;-67
2023/06/25 01:57:07;;;;;;;6.95;6.35;;;;;;;;;;5005940;28;20430;-67
2023/06/25 01:59:34;;;;;;;6.97;6.28;;;;;;;;;;4986814;28;20797;-67
2023/06/25 02:02:02;;;;;;;7.57;6.75;;;;;;;;;;4994667;28;20424;-67
2023/06/25 02:04:29;;;;;;;6.85;6.15;;;;;;;;;;5008890;28;20435;-67
2023/06/25 02:06:56;;;;;;;7.30;6.70;;;;;;;;;;5013024;28;20440;-67
2023/06/25 02:09:23;;;;;;;6.70;6.20;;;;;;;;;;4990862;28;20430;-67
2023/06/25 02:11:50;;;;;;;7.40;6.80;;;;;;;;;;4995311;28;20425;-67
2023/06/25 02:14:18;;;;;;;7.50;6.80;;;;;;;;;;5002764;28;20438;-67
2023/06/25 02:16:45;;;;;;;7.25;6.55;;;;;;;;;;5000190;28;20921;-67
2023/06/25 02:19:12;;;;;;;8.70;6.50;;;;;;;;;;5001244;28;20434;-67
2023/06/25 02:21:40;;;;;;;7.55;6.85;;;;;;;;;;5007088;28;20426;-68
2023/06/25 02:24:07;;;;;;;7.00;6.40;;;;;;;;;;4999726;28;20422;-67
2023/06/25 02:26:34;;;;;;;6.65;5.95;;;;;;;;;;5000018;28;20496;-67
2023/06/25 02:29:01;;;;;;;7.40;6.70;;;;;;;;;;5005890;28;20464;-67
2023/06/25 02:31:31;;;;;;;7.45;6.85;;;;;;;;;;4997367;28;20422;-67
2023/06/25 02:33:58;;;;;;;6.90;6.30;;;;;;;;;;5005278;28;20789;-67
2023/06/25 02:36:25;;;;;;;6.80;6.20;;;;;;;;;;5010693;28;20479;-67
2023/06/25 02:38:53;;;;;;;6.93;6.22;;;;;;;;;;4988214;28;20422;-67
2023/06/25 02:41:20;;;;;;;7.30;6.70;;;;;;;;;;5006102;28;20417;-67
2023/06/25 02:43:47;;;;;;;6.80;6.30;;;;;;;;;;4995659;28;20461;-68
2023/06/25 02:46:14;;;;;;;6.72;6.07;;;;;;;;;;4998945;28;20439;-67
2023/06/25 02:48:42;;;;;;;7.53;6.73;;;;;;;;;;4998354;28;20431;-67
2023/06/25 02:51:10;;;;;;;7.33;6.70;;;;;;;;;;5013713;28;20441;-67
2023/06/25 02:53:37;;;;;;;7.30;6.60;;;;;;;;;;4996426;28;20434;-67
2023/06/25 02:56:04;;;;;;;7.55;6.85;;;;;;;;;;4997235;28;20437;-68
2023/06/25 02:58:31;;;;;;;7.60;6.90;;;;;;;;;;4999636;28;20421;-68
2023/06/25 03:00:58;;;;;;;8.10;7.40;;;;;;;;;;4986633;28;20762;-67
2023/06/25 03:03:25;;;;;;;7.70;7.00;;;;;;;;;;5013096;28;20909;-67
2023/06/25 03:05:54;;;;;;;7.70;7.00;;;;;;;;;;4999843;28;20444;-68
2023/06/25 03:08:22;;;;;;;8.00;7.20;;;;;;;;;;5000628;28;20427;-67
2023/06/25 03:10:49;;;;;;;7.30;6.70;;;;;;;;;;4995947;28;20434;-67
2023/06/25 03:13:16;;;;;;;8.32;7.05;;;;;;;;;;4999674;28;20417;-67
2023/06/25 03:15:43;;;;;;;8.02;6.93;;;;;;;;;;5003684;28;20439;-67
2023/06/25 03:18:10;;;;;;;7.85;7.03;;;;;;;;;;5005518;28;20442;-67
2023/06/25 03:20:37;;;;;;;7.35;6.75;;;;;;;;;;4995153;28;20900;-67
2023/06/25 03:23:05;;;;;;;7.95;7.25;;;;;;;;;;5005618;28;20421;-67
2023/06/25 03:25:32;;;;;;;7.70;7.00;;;;;;;;;;4999717;28;20429;-68
2023/06/25 03:28:00;;;;;;;7.55;6.85;;;;;;;;;;4992270;28;20421;-67
2023/06/25 03:30:27;;;;;;;7.32;6.68;;;;;;;;;;4998150;28;21075;-68
2023/06/25 03:32:54;;;;;;;7.90;7.10;;;;;;;;;;5001446;28;20818;-67
2023/06/25 03:35:21;;;;;;;8.27;7.32;;;;;;;;;;5003015;28;20431;-67
2023/06/25 03:37:48;;;;;;;7.40;6.80;;;;;;;;;;5005807;28;20417;-67
2023/06/25 03:40:16;;;;;;;7.85;7.15;;;;;;;;;;5011980;28;20435;-67
2023/06/25 03:42:43;;;;;;;7.10;6.40;;;;;;;;;;5003996;28;20436;-67
2023/06/25 03:45:13;;;;;;;8.20;7.40;;;;;;;;;;5004803;28;20440;-67
2023/06/25 03:47:41;;;;;;;7.55;6.95;;;;;;;;;;5013129;28;20477;-67
2023/06/25 03:50:08;;;;;;;7.68;6.97;;;;;;;;;;5004793;28;20424;-67
2023/06/25 03:52:35;;;;;;;7.60;6.90;;;;;;;;;;4997053;28;20419;-67
2023/06/25 03:55:03;;;;;;;8.00;7.20;;;;;;;;;;4991842;28;20941;-67
2023/06/25 03:57:31;;;;;;;8.40;7.60;;;;;;;;;;5003493;28;20795;-67
2023/06/25 03:59:59;;;;;;;8.05;7.25;;;;;;;;;;4999571;28;20443;-67
2023/06/25 04:02:26;;;;;;;7.95;7.20;;;;;;;;;;5017476;28;20417;-67
2023/06/25 04:04:53;;;;;;;8.10;7.30;;;;;;;;;;5011698;28;20428;-67
2023/06/25 04:07:20;;;;;;;8.48;7.68;;;;;;;;;;5000078;28;20430;-67
2023/06/25 04:09:47;;;;;;;8.23;7.43;;;;;;;;;;4997265;28;20443;-67
2023/06/25 04:12:14;;;;;;;8.20;7.50;;;;;;;;;;5004435;28;20431;-67
2023/06/25 04:14:42;;;;;;;7.95;7.30;;;;;;;;;;5006440;28;20510;-67
2023/06/25 04:17:09;;;;;;;7.90;7.30;;;;;;;;;;5018452;28;20913;-67
2023/06/25 04:19:38;;;;;;;8.95;7.47;;;;;;;;;;4997212;28;20916;-67
2023/06/25 04:22:05;;;;;;;8.50;7.70;;;;;;;;;;5015160;28;20759;-67
2023/06/25 04:24:32;;;;;;;9.10;8.30;;;;;;;;;;5013145;28;20443;-67
2023/06/25 04:26:59;;;;;;;8.90;8.00;;;;;;;;;;4997989;28;20415;-67
2023/06/25 04:29:26;;;;;;;7.97;7.28;;;;;;;;;;4993661;28;20437;-67
2023/06/25 04:31:55;;;;;;;8.88;8.07;;;;;;;;;;5015494;28;20415;-67
2023/06/25 04:34:22;;;;;;;8.30;7.60;;;;;;;;;;4998134;28;20436;-68
2023/06/25 04:36:49;;;;;;;9.55;8.55;;;;;;;;;;5006425;28;20428;-68
2023/06/25 04:39:16;;;;;;;8.52;7.80;;;;;;;;;;5002933;28;20430;-68
2023/06/25 04:41:43;;;;;;;8.55;7.75;;;;;;;;;;5005340;28;20443;-68
2023/06/25 04:44:10;;;;;;;8.50;7.73;;;;;;;;;;4997290;28;20438;-68
2023/06/25 04:46:37;;;;;;;8.60;7.80;;;;;;;;;;5007940;28;20420;-68
2023/06/25 04:49:06;;;;;;;9.00;8.20;;;;;;;;;;5006096;28;20445;-68
2023/06/25 04:51:34;;;;;;;8.80;7.90;;;;;;;;;;4994014;28;20525;-68
2023/06/25 04:54:01;;;;;;;8.70;7.90;;;;;;;;;;5005357;28;20452;-68
2023/06/25 04:56:28;;;;;;;8.80;8.00;;;;;;;;;;4995737;28;20435;-68
2023/06/25 04:58:55;;;;;;;8.63;7.73;;;;;;;;;;5000832;28;20434;-68
2023/06/25 05:01:23;;;;;;;8.15;7.45;;;;;;;;;;5020277;28;20431;-68
2023/06/25 05:03:50;;;;;;;8.60;7.90;;;;;;;;;;5004398;28;20508;-68
2023/06/25 05:06:18;;;;;;;8.98;8.18;;;;;;;;;;4991342;28;20423;-67
2023/06/25 05:08:45;;;;;;;8.10;7.45;;;;;;;;;;4994409;28;20435;-68
2023/06/25 05:11:12;;;;;;;8.80;8.10;;;;;;;;;;5003313;28;20437;-68
2023/06/25 05:13:40;;;;;;;8.40;7.70;;;;;;;;;;4996459;28;20460;-67
2023/06/25 05:16:07;;;;;;;8.55;7.85;;;;;;;;;;5002809;28;20440;-68
2023/06/25 05:18:34;;;;;;;8.27;7.57;;;;;;;;;;5011872;28;20789;-68
2023/06/25 05:21:01;;;;;;;8.35;7.65;;;;;;;;;;5009883;28;20446;-68
2023/06/25 05:23:29;;;;;;;8.45;7.75;;;;;;;;;;5016747;28;20446;-68
2023/06/25 05:25:56;;;;;;;8.77;7.88;;;;;;;;;;5004286;28;20811;-68
2023/06/25 05:28:23;;;;;;;8.77;8.07;;;;;;;;;;5000620;28;20576;-68
2023/06/25 05:30:50;;;;;;;7.72;7.07;;;;;;;;;;4998393;28;20436;-68
2023/06/25 05:33:17;;;;;;;8.48;7.72;;;;;;;;;;5007547;28;20851;-68
2023/06/25 05:35:44;;;;;;;8.80;8.10;;;;;;;;;;5017028;28;20935;-68
2023/06/25 05:38:11;;;;;;;7.93;7.22;;;;;;;;;;5011963;28;20445;-67
2023/06/25 05:40:40;;;;;;;7.97;7.28;;;;;;;;;;5010813;28;20795;-68
2023/06/25 05:43:07;;;;;;;7.95;7.35;;;;;;;;;;5007014;28;20786;-68
2023/06/25 05:45:34;;;;;;;7.85;7.25;;;;;;;;;;5003130;28;20582;-68
2023/06/25 05:48:01;;;;;;;9.17;8.27;;;;;;;;;;5009884;28;20491;-68
2023/06/25 05:50:28;;;;;;;8.43;7.72;;;;;;;;;;5007088;28;20436;-68
2023/06/25 05:52:55;;;;;;;8.60;7.80;;;;;;;;;;5001709;28;20427;-68
2023/06/25 05:55:22;;;;;;;8.52;7.82;;;;;;;;;;5003112;28;20476;-69
2023/06/25 05:57:51;;;;;;;8.10;7.50;;;;;;;;;;4997873;28;20443;-66
2023/06/25 06:00:21;;;;;;;8.63;7.82;;;;;;;;;;4994359;28;20435;-66
2023/06/25 06:02:48;;;;;;;8.43;7.63;;;;;;;;;;5005092;28;20419;-67
2023/06/25 06:05:15;;;;;;;8.18;7.38;;;;;;;;;;4996542;28;20448;-66
2023/06/25 06:07:42;;;;;;;8.18;7.45;;;;;;;;;;5020741;28;20413;-66
2023/06/25 06:10:09;;;;;;;8.63;7.83;;;;;;;;;;4994121;23;20457;-68
2023/06/25 06:12:36;;;;;;;7.72;7.13;;;;;;;;;;4978826;28;20434;-69
2023/06/25 06:15:05;;;;;;;8.38;7.57;;;;;;;;;;4989389;28;20806;-69
2023/06/25 06:17:32;;;;;;;8.30;7.60;;;;;;;;;;4974724;28;20451;-68
2023/06/25 06:19:59;;;;;;;8.15;7.53;;;;;;;;;;4984530;28;20447;-68
2023/06/25 06:22:26;;;;;;;8.27;7.57;;;;;;;;;;4966889;28;20448;-69
2023/06/25 06:24:53;;;;;;;7.95;7.32;;;;;;;;;;4977826;28;20428;-69
2023/06/25 06:27:20;;;;;;;8.60;7.90;;;;;;;;;;5063840;28;20912;-68
2023/06/25 06:29:47;;;;;;;8.00;7.40;;;;;;;;;;5005053;28;20852;-68
2023/06/25 06:32:15;;;;;;;7.78;7.18;;;;;;;;;;4984823;28;20451;-67
2023/06/25 06:34:42;;;;;;;7.68;7.07;;;;;;;;;;4994179;28;20435;-66
2023/06/25 06:37:11;;;;;;;8.00;7.30;;;;;;;;;;4988078;28;20455;-67
2023/06/25 06:39:38;;;;;;;7.85;7.25;;;;;;;;;;5016465;28;20782;-66
2023/06/25 06:42:05;;;;;;;7.90;7.30;;;;;;;;;;5008465;28;20448;-66
2023/06/25 06:44:32;;;;;;;7.68;6.93;;;;;;;;;;4967388;28;20459;-66
2023/06/25 06:46:59;;;;;;;7.55;6.85;;;;;;;;;;4997453;28;20423;-67
2023/06/25 06:49:28;;;;;;;7.70;7.00;;;;;;;;;;4989683;28;20428;-67
2023/06/25 06:51:55;;;;;;;7.20;6.60;;;;;;;;;;4968567;28;20452;-66
2023/06/25 06:54:22;;;;;;;7.75;7.07;;;;;;;;;;4984643;28;20431;-66
2023/06/25 06:56:49;;;;;;;6.97;6.30;;;;;;;;;;4971583;28;20436;-67
2023/06/25 06:59:16;;;;;;;7.35;6.75;;;;;;;;;;4973303;28;20436;-68
2023/06/25 07:01:43;;;;;;;7.10;6.50;;;;;;;;;;4981939;28;20452;-67
2023/06/25 07:04:10;;;;;;;6.80;6.20;;;;;;;;;;4965457;28;20459;-68
2023/06/25 07:06:38;;;;;;;7.00;6.40;;;;;;;;;;4963960;28;20788;-67
2023/06/25 07:09:05;;;;;;;6.85;6.32;;;;;;;;;;4985803;28;20961;-68
2023/06/25 07:11:33;;;;;;;6.82;6.32;;;;;;;;;;5030985;28;20510;-67
2023/06/25 07:14:00;;;;;;;7.10;6.40;;;;;;;;;;4995022;28;20440;-68
2023/06/25 07:16:27;;;;;;;6.97;6.38;;;;;;;;;;5002888;28;20436;-66
2023/06/25 07:18:54;;;;;;;6.93;6.43;;;;;;;;;;4973440;28;20478;-67
2023/06/25 07:21:21;;;;;;;7.00;6.40;;;;;;;;;;4999694;28;20432;-67
2023/06/25 07:23:49;;;;;;;6.90;6.40;;;;;;;;;;5006720;28;20798;-68
2023/06/25 07:26:16;;;;;;;6.85;6.25;;;;;;;;;;5014159;28;20448;-69
2023/06/25 07:28:43;;;;;;;6.80;6.20;;;;;;;;;;4985354;28;20811;-69
2023/06/25 07:31:11;;;;;;;6.27;5.77;;;;;;;;;;4967848;28;20432;-70
2023/06/25 07:33:38;;;;;;;5.88;5.38;;;;;;;;;;4981867;28;20443;-69
2023/06/25 07:36:05;;;;;;;6.78;5.90;;;;;;;;;;4997622;28;20451;-69
2023/06/25 07:38:32;;;;;;;6.38;5.88;;;;;;;;;;5011440;28;20447;-68
2023/06/25 07:41:00;;;;;;;6.35;5.85;;;;;;;;;;4967377;28;20444;-66
2023/06/25 07:43:27;;;;;;;6.65;6.15;;;;;;;;;;5000492;28;20435;-66
2023/06/25 07:45:54;;;;;;;6.22;5.82;;;;;;;;;;5002127;28;20440;-66
2023/06/25 07:48:21;;;;;;;6.75;6.18;;;;;;;;;;5007289;28;20416;-66
2023/06/25 07:50:50;;;;;;;6.20;5.70;;;;;;;;;;5023807;28;20427;-65
2023/06/25 07:53:17;;;;;;;6.97;6.47;;;;;;;;;;5041765;28;20448;-64
2023/06/25 07:55:45;;;;;;;6.75;6.25;;;;;;;;;;4992277;28;20419;-65
2023/06/25 07:58:13;;;;;;;6.45;5.85;;;;;;;;;;4978855;28;20428;-65
2023/06/25 08:00:41;;;;;;;6.43;5.93;;;;;;;;;;4967267;28;20448;-66
2023/06/25 08:03:09;;;;;;;5.82;5.32;;;;;;;;;;4996878;28;20424;-67
2023/06/25 08:05:36;;;;;;;5.80;5.40;;;;;;;;;;5010844;28;20447;-67
2023/06/25 08:08:03;;;;;;;5.80;5.40;;;;;;;;;;5000138;28;20428;-65
2023/06/25 08:10:30;;;;;;;5.90;5.40;;;;;;;;;;4966238;28;20948;-68
2023/06/25 08:12:57;;;;;;;5.80;5.30;;;;;;;;;;4993690;28;20447;-69
2023/06/25 08:15:26;;;;;;;5.60;5.20;;;;;;;;;;4973344;28;20436;-77
2023/06/25 08:17:53;;;;;;;5.30;4.90;;;;;;;;;;5008041;28;20435;-77
2023/06/25 08:20:20;;;;;;;5.07;4.57;;;;;;;;;;5014621;28;20443;-79
2023/06/25 08:22:47;;;;;;;5.97;5.57;;;;;;;;;;5025040;28;20443;-78
2023/06/25 08:25:21;;;;;;;5.03;4.63;;;;;;;;;;4989286;28;20440;-77
2023/06/25 08:27:48;;;;;;;5.38;4.88;;;;;;;;;;5010902;28;20978;-78
2023/06/25 08:30:16;;;;;;;5.40;5.00;;;;;;;;;;4998992;28;20448;-77
2023/06/25 08:32:44;;;;;;;4.93;4.53;;;;;;;;;;4974826;28;20448;-76
2023/06/25 08:35:11;;;;;;;5.07;4.70;;;;;;;;;;4967888;28;20444;-78
2023/06/25 08:37:38;;;;;;;5.00;4.60;;;;;;;;;;4981571;28;20444;-76
2023/06/25 08:40:06;;;;;;;4.80;4.40;;;;;;;;;;4959777;28;20539;-76
2023/06/25 08:42:33;;;;;;;5.10;4.60;;;;;;;;;;4971494;28;20435;-77
2023/06/25 08:45:00;;;;;;;5.10;4.70;;;;;;;;;;4968720;28;20454;-78
2023/06/25 08:47:28;;;;;;;5.00;4.60;;;;;;;;;;4965234;28;20447;-77
2023/06/25 08:49:56;;;;;;;4.78;4.38;;;;;;;;;;4974989;28;20671;-75
2023/06/25 08:52:24;;;;;;;5.03;4.53;;;;;;;;;;4966479;28;20846;-76
2023/06/25 08:54:52;;;;;;;4.47;4.18;;;;;;;;;;4962853;28;20432;-78
2023/06/25 08:57:20;;;;;;;5.20;4.70;;;;;;;;;;4967504;28;20529;-79
2023/06/25 08:59:47;;;;;;;4.40;4.10;;;;;;;;;;4978438;28;20509;-75
2023/06/25 09:02:14;;;;;;;4.65;4.25;;;;;;;;;;4970056;28;20447;-76
2023/06/25 09:04:43;;;;;;;4.80;4.40;;;;;;;;;;4973373;28;20471;-76
2023/06/25 09:07:15;;;;;;;4.50;4.10;;;;;;;;;;5019837;28;20446;-77
2023/06/25 09:09:43;;;;;;;4.55;4.15;;;;;;;;;;5014757;28;20813;-78
2023/06/25 09:12:10;;;;;;;4.55;4.15;;;;;;;;;;5023603;28;20460;-78
2023/06/25 09:14:37;;;;;;;4.87;4.40;;;;;;;;;;4986332;28;20440;-78
2023/06/25 09:17:05;;;;;;;4.50;4.10;;;;;;;;;;4990483;28;20444;-78
2023/06/25 09:19:32;;;;;;;4.50;4.10;;;;;;;;;;5005547;28;20499;-78
2023/06/25 09:21:59;;;;;;;4.40;4.00;;;;;;;;;;4978466;28;20779;-78
2023/06/25 09:24:27;;;;;;;4.75;4.35;;;;;;;;;;4976520;28;20451;-74
2023/06/25 09:26:55;;;;;;;4.30;4.00;;;;;;;;;;4986944;28;20436;-77
2023/06/25 09:29:23;;;;;;;4.80;4.40;;;;;;;;;;4956373;28;20447;-77
2023/06/25 09:31:50;;;;;;;4.20;3.90;;;;;;;;;;4962830;28;20420;-78
2023/06/25 09:34:18;;;;;;;4.35;4.05;;;;;;;;;;4965912;28;20444;-78
2023/06/25 09:36:46;;;;;;;4.10;3.80;;;;;;;;;;4963527;28;20444;-78
2023/06/25 09:39:13;;;;;;;4.30;4.00;;;;;;;;;;4964436;28;20433;-77
2023/06/25 09:41:42;;;;;;;4.10;3.80;;;;;;;;;;4960402;28;20827;-79
2023/06/25 09:44:09;;;;;;;4.00;3.70;;;;;;;;;;4965423;28;20440;-78
2023/06/25 09:46:37;;;;;;;5.18;4.78;;;;;;;;;;4984878;28;20438;-77
2023/06/25 09:49:05;;;;;;;4.00;3.60;;;;;;;;;;4964441;28;20443;-75
2023/06/25 09:51:33;;;;;;;3.92;3.63;;;;;;;;;;4967199;28;20451;-76
2023/06/25 09:54:03;;;;;;;3.88;3.58;;;;;;;;;;4964649;28;20451;-75
2023/06/25 09:56:30;;;;;;;3.47;3.28;;;;;;;;;;4991458;28;20494;-77
2023/06/25 09:58:59;;;;;;;3.80;3.50;;;;;;;;;;4980416;28;20443;-77
2023/06/25 10:01:26;;;;;;;3.90;3.60;;;;;;;;;;4998334;28;20467;-78
2023/06/25 10:03:53;;;;;;;3.55;3.30;;;;;;;;;;4969692;28;20424;-76
2023/06/25 10:06:20;;;;;;;4.10;3.80;;;;;;;;;;4976700;28;20440;-76
2023/06/25 10:08:48;;;;;;;4.10;3.70;;;;;;;;;;5046398;28;20424;-76
2023/06/25 10:11:16;;;;;;;3.90;3.60;;;;;;;;;;4979158;28;21086;-79
2023/06/25 10:13:44;;;;;;;3.90;3.60;;;;;;;;;;4993657;28;20865;-78
2023/06/25 10:16:18;;;;;;;4.10;3.80;;;;;;;;;;4973035;28;20439;-78
2023/06/25 10:18:45;;;;;;;4.00;3.70;;;;;;;;;;4975859;28;20444;-78
2023/06/25 10:21:19;;;;;;;3.72;3.42;;;;;;;;;;4979783;28;20447;-77
2023/06/25 10:23:54;;;;;;;3.50;3.30;;;;;;;;;;4986473;28;20440;-76
2023/06/25 10:26:26;;;;;;;3.30;3.10;;;;;;;;;;4980802;28;20481;-77
2023/06/25 10:28:53;;;;;;;3.58;3.30;;;;;;;;;;4981666;28;20493;-78
2023/06/25 10:31:21;;;;;;;3.40;3.10;;;;;;;;;;4972802;28;20444;-78
2023/06/25 10:33:48;;;;;;;3.75;3.45;;;;;;;;;;4967214;28;20471;-76
2023/06/25 10:36:16;;;;;;;4.00;3.60;;;;;;;;;;4964586;28;20462;-76
2023/06/25 10:38:43;;;;;;;3.50;3.20;;;;;;;;;;4967387;28;20444;-76
2023/06/25 10:41:10;;;;;;;3.50;3.20;;;;;;;;;;4963794;28;20440;-77
2023/06/25 10:43:38;;;;;;;3.50;3.20;;;;;;;;;;5005992;28;20443;-77
2023/06/25 10:46:05;;;;;;;3.00;2.80;;;;;;;;;;4965721;28;20442;-76
2023/06/25 10:48:34;;;;;;;3.08;2.88;;;;;;;;;;4979643;28;20434;-75
2023/06/25 10:51:01;;;;;;;3.30;3.10;;;;;;;;;;4977928;28;20446;-78
2023/06/25 10:53:28;;;;;;;3.40;3.10;;;;;;;;;;4996201;28;20439;-75
2023/06/25 10:55:55;;;;;;;3.22;3.03;;;;;;;;;;4969077;28;20440;-75
2023/06/25 10:58:23;;;;;;;3.20;3.00;;;;;;;;;;4973105;28;20443;-75
2023/06/25 11:00:54;;;;;;;3.00;2.80;;;;;;;;;;4967422;28;20447;-76
2023/06/25 11:03:21;;;;;;;3.00;2.72;;;;;;;;;;5013135;28;20733;-72
2023/06/25 11:05:50;;;;;;;3.22;2.92;;;;;;;;;;4965761;28;20436;-74
2023/06/25 11:08:17;;;;;;;2.60;2.40;;;;;;;;;;4981802;28;20458;-73
2023/06/25 11:10:44;;;;;;;3.10;2.90;;;;;;;;;;5002192;28;20436;-73
2023/06/25 11:13:12;;;;;;;3.10;2.90;;;;;;;;;;4988959;28;20440;-76
2023/06/25 11:15:40;;;;;;;2.90;2.60;;;;;;;;;;4958634;28;20448;-76
2023/06/25 11:18:08;;;;;;;3.00;2.80;;;;;;;;;;4990747;28;20854;-76
2023/06/25 11:20:35;;;;;;;2.92;2.72;;;;;;;;;;4992484;28;20807;-76
2023/06/25 11:23:04;;;;;;;2.40;2.30;;;;;;;;;;4984093;28;20454;-74
2023/06/25 11:25:31;;;;;;;2.80;2.60;;;;;;;;;;4978773;28;20436;-76
2023/06/25 11:28:02;;;;;;;3.10;2.80;;;;;;;;;;5022211;28;20444;-74
2023/06/25 11:30:30;;;;;;;2.80;2.60;;;;;;;;;;5048685;28;20415;-75
2023/06/25 11:33:07;;;;;;;2.80;2.60;;;;;;;;;;5053993;28;20442;-75
2023/06/25 11:35:34;;;;;;;3.17;2.97;;;;;;;;;;5021416;28;20485;-76
2023/06/25 11:38:01;;;;;;;2.90;2.70;;;;;;;;;;5007657;28;21095;-76
2023/06/25 11:40:31;;;;;;;3.10;2.90;;;;;;;;;;5058845;28;20418;-75
2023/06/25 11:42:58;;;;;;;2.70;2.50;;;;;;;;;;4980428;28;20446;-76
2023/06/25 11:45:25;;;;;;;2.60;2.40;;;;;;;;;;5006182;28;20440;-76
2023/06/25 11:47:53;;;;;;;2.85;2.65;;;;;;;;;;4996251;28;20436;-76
2023/06/25 11:50:22;;;;;;;3.17;2.88;;;;;;;;;;5029935;28;20523;-76
2023/06/25 11:52:49;;;;;;;2.42;2.33;;;;;;;;;;5024114;28;20439;-76
2023/06/25 11:55:18;;;;;;;2.40;2.20;;;;;;;;;;5017203;28;20829;-76
2023/06/25 11:57:47;;;;;;;2.60;2.40;;;;;;;;;;4978341;28;20515;-77
2023/06/25 12:00:15;;;;;;;2.70;2.50;;;;;;;;;;4979637;28;20431;-77
2023/06/25 12:02:42;;;;;;;2.70;2.50;;;;;;;;;;5023678;28;20440;-75
2023/06/25 12:05:09;;;;;;;2.50;2.40;;;;;;;;;;5041289;28;20399;-75
2023/06/25 12:07:36;;;;;;;2.60;2.40;;;;;;;;;;5000325;28;20431;-77
2023/06/25 12:10:03;;;;;;;2.70;2.50;;;;;;;;;;5013705;28;20440;-76
2023/06/25 12:12:31;;;;;;;2.42;2.22;;;;;;;;;;4976163;23;20483;-76
2023/06/25 12:14:59;;;;;;;2.40;2.20;;;;;;;;;;4954131;28;20436;-78
2023/06/25 12:17:26;;;;;;;2.33;2.22;;;;;;;;;;4968432;28;20441;-78
2023/06/25 12:19:53;;;;;;;2.30;2.20;;;;;;;;;;4964499;28;20462;-78
2023/06/25 12:22:20;;;;;;;2.20;2.10;;;;;;;;;;4967698;28;20853;-78
2023/06/25 12:24:47;;;;;;;2.70;2.50;;;;;;;;;;4965142;28;20447;-76
2023/06/25 12:27:14;;;;;;;2.10;2.00;;;;;;;;;;4966830;28;20424;-76
2023/06/25 12:29:41;;;;;;;2.60;2.40;;;;;;;;;;4955564;28;20429;-77
2023/06/25 12:32:10;;;;;;;2.30;2.20;;;;;;;;;;4966101;28;20444;-77
2023/06/25 12:34:37;;;;;;;2.40;2.30;;;;;;;;;;4972996;28;20436;-77
2023/06/25 12:37:04;;;;;;;2.40;2.30;;;;;;;;;;4960897;28;20455;-77
2023/06/25 12:39:31;;;;;;;2.42;2.22;;;;;;;;;;4961578;28;20432;-77
2023/06/25 12:41:58;;;;;;;2.67;2.47;;;;;;;;;;4963895;28;20443;-77
2023/06/25 12:44:25;;;;;;;2.50;2.40;;;;;;;;;;4969106;28;20444;-76
2023/06/25 12:46:53;;;;;;;2.40;2.30;;;;;;;;;;4959916;28;20449;-76
2023/06/25 12:49:21;;;;;;;2.50;2.40;;;;;;;;;;4956183;28;20444;-77
2023/06/25 12:51:48;;;;;;;2.20;2.00;;;;;;;;;;4964729;28;20447;-76
2023/06/25 12:54:15;;;;;;;2.10;2.00;;;;;;;;;;4967496;28;20445;-77
2023/06/25 12:56:42;;;;;;;1.98;1.88;;;;;;;;;;4959056;28;20520;-77
2023/06/25 12:59:09;;;;;;;1.80;1.70;;;;;;;;;;4962584;28;20456;-76
2023/06/25 13:01:36;;;;;;;2.40;2.30;;;;;;;;;;4964592;28;20787;-77
2023/06/25 13:04:03;;;;;;;1.98;1.80;;;;;;;;;;4964353;28;20443;-77
2023/06/25 13:06:32;;;;;;;1.80;1.70;;;;;;;;;;4957283;28;20877;-77
2023/06/25 13:08:59;;;;;;;2.00;1.90;;;;;;;;;;4959341;28;20541;-77
2023/06/25 13:11:26;;;;;;;2.10;2.00;;;;;;;;;;4958507;28;20456;-77
2023/06/25 13:13:53;;;;;;;2.20;2.10;;;;;;;;;;4960555;28;20638;-77
2023/06/25 13:16:20;;;;;;;2.60;2.50;;;;;;;;;;4969011;28;20428;-77
2023/06/25 13:18:47;;;;;;;2.13;2.03;;;;;;;;;;4962147;28;20443;-77
2023/06/25 13:21:14;;;;;;;2.30;2.20;;;;;;;;;;4967646;28;20444;-77
2023/06/25 13:23:43;;;;;;;2.20;2.10;;;;;;;;;;4962493;28;20533;-76
2023/06/25 13:26:10;;;;;;;2.50;2.40;;;;;;;;;;4965296;28;20466;-77
2023/06/25 13:28:37;;;;;;;2.33;2.22;;;;;;;;;;4958346;28;20841;-76
2023/06/25 13:31:04;;;;;;;2.20;2.10;;;;;;;;;;4966427;28;20444;-78
2023/06/25 13:33:31;;;;;;;2.40;2.20;;;;;;;;;;4963004;28;20448;-76
2023/06/25 13:35:58;;;;;;;3.17;2.97;;;;;;;;;;4961387;28;20442;-78
2023/06/25 13:38:25;;;;;;;2.30;2.20;;;;;;;;;;4962651;28;20444;-78
2023/06/25 13:40:54;;;;;;;2.60;2.40;;;;;;;;;;4966930;28;20933;-78
2023/06/25 13:43:21;;;;;;;2.60;2.40;;;;;;;;;;4966600;28;20443;-78
2023/06/25 13:45:48;;;;;;;2.55;2.35;;;;;;;;;;4961223;28;20508;-78
2023/06/25 13:48:15;;;;;;;2.70;2.50;;;;;;;;;;4951736;28;20877;-78
2023/06/25 13:50:42;;;;;;;2.80;2.60;;;;;;;;;;4962373;28;20452;-78
2023/06/25 13:53:09;;;;;;;2.60;2.40;;;;;;;;;;4962071;28;20465;-78
2023/06/25 13:55:36;;;;;;;2.38;2.17;;;;;;;;;;4958264;28;20443;-78
2023/06/25 13:58:04;;;;;;;2.60;2.40;;;;;;;;;;4963774;28;20440;-78
2023/06/25 14:00:31;;;;;;;2.80;2.50;;;;;;;;;;4963718;28;20544;-78
2023/06/25 14:03:01;;;;;;;3.10;2.50;;;;;;;;;;4965601;28;20436;-78
2023/06/25 14:05:28;;;;;;;2.40;2.30;;;;;;;;;;4966686;28;20447;-78
2023/06/25 14:07:56;;;;;;;2.60;2.40;;;;;;;;;;4960623;28;20726;-77
2023/06/25 14:10:23;;;;;;;2.50;2.30;;;;;;;;;;4964882;28;20444;-78
2023/06/25 14:12:50;;;;;;;2.72;2.50;;;;;;;;;;4958933;28;20915;-76
2023/06/25 14:15:19;;;;;;;2.70;2.50;;;;;;;;;;4958482;28;20818;-78
2023/06/25 14:17:46;;;;;;;2.90;2.70;;;;;;;;;;4957297;28;20462;-78
2023/06/25 14:20:13;;;;;;;3.00;2.80;;;;;;;;;;4964925;28;20436;-78
2023/06/25 14:22:40;;;;;;;2.70;2.50;;;;;;;;;;4958191;28;20449;-78
2023/06/25 14:25:07;;;;;;;2.70;2.50;;;;;;;;;;4958740;28;20440;-78
2023/06/25 14:27:34;;;;;;;2.90;2.70;;;;;;;;;;4957964;28;20865;-77
2023/06/25 14:30:01;;;;;;;2.60;2.40;;;;;;;;;;4966755;28;20499;-78
2023/06/25 14:32:31;;;;;;;2.88;2.67;;;;;;;;;;4965582;28;20447;-78
2023/06/25 14:34:58;;;;;;;2.80;2.50;;;;;;;;;;4967264;28;20495;-78
2023/06/25 14:37:25;;;;;;;2.40;2.30;;;;;;;;;;4965914;28;20446;-78
2023/06/25 14:39:52;;;;;;;3.00;2.80;;;;;;;;;;4954364;28;20457;-78
2023/06/25 14:42:19;;;;;;;2.90;2.70;;;;;;;;;;4965592;28;20524;-78
2023/06/25 14:44:47;;;;;;;2.90;2.70;;;;;;;;;;4963736;28;20451;-77